createdAt,value
2022-11-24T00:01:20.027Z,99960.56
2022-11-24T00:03:53.401Z,99965.66
2022-11-24T00:06:21.319Z,99964.88
2022-11-24T00:08:50.967Z,99972.41
2022-11-24T00:11:20.548Z,99970.66
2022-11-24T00:13:49.116Z,99970.25
2022-11-24T00:16:18.899Z,99977.84
2022-11-24T00:18:48.805Z,99969.38
2022-11-24T00:21:17.993Z,99979.19
2022-11-24T00:23:46.442Z,99978.00
2022-11-24T00:26:17.556Z,99983.25
2022-11-24T00:28:46.669Z,99987.97
2022-11-24T00:31:19.902Z,99986.94
2022-11-24T00:33:48.126Z,99999.72
2022-11-24T00:36:18.407Z,99998.34
2022-11-24T00:38:47.147Z,99996.59
2022-11-24T00:41:16.749Z,100003.56
2022-11-24T00:43:45.228Z,100010.94
2022-11-24T00:46:14.274Z,100008.88
2022-11-24T00:48:43.312Z,100007.56
2022-11-24T00:51:13.418Z,100013.38
2022-11-24T00:53:41.989Z,100006.22
2022-11-24T00:56:11.040Z,100009.38
2022-11-24T00:58:40.949Z,100010.47
2022-11-24T01:01:11.815Z,100015.09
2022-11-24T01:03:40.612Z,100020.84
2022-11-24T01:06:11.061Z,100024.00
2022-11-24T01:08:40.136Z,100015.34
2022-11-24T01:11:10.172Z,100032.13
2022-11-24T01:13:38.834Z,100031.34
2022-11-24T01:16:15.328Z,100025.94
2022-11-24T01:18:43.824Z,100023.50
2022-11-24T01:21:12.010Z,100034.22
2022-11-24T01:23:40.403Z,100034.81
2022-11-24T01:26:10.152Z,100032.28
2022-11-24T01:28:43.217Z,100035.06
2022-11-24T01:31:17.460Z,100046.75
2022-11-24T01:33:45.703Z,100042.78
2022-11-24T01:36:13.947Z,100043.88
2022-11-24T01:38:42.343Z,100042.81
2022-11-24T01:41:13.762Z,100050.16
2022-11-24T01:43:42.807Z,100046.56
2022-11-24T01:46:18.256Z,100038.19
2022-11-24T01:48:48.768Z,100037.34
2022-11-24T01:51:20.180Z,100036.94
2022-11-24T01:53:52.192Z,100047.41
2022-11-24T01:56:21.334Z,100051.75
2022-11-24T01:58:50.238Z,100050.28
2022-11-24T02:01:19.965Z,100047.38
2022-11-24T02:03:49.136Z,100060.41
2022-11-24T02:06:19.841Z,100058.09
2022-11-24T02:08:52.532Z,100067.97
2022-11-24T02:11:22.903Z,100067.97
2022-11-24T02:13:51.400Z,100079.06
2022-11-24T02:16:21.239Z,100075.09
2022-11-24T02:18:50.021Z,100082.66
2022-11-24T02:21:18.504Z,100082.44
2022-11-24T02:23:53.738Z,100083.06
2022-11-24T02:26:36.344Z,100088.31
2022-11-24T02:29:05.308Z,100089.56
2022-11-24T02:31:33.538Z,100102.81
2022-11-24T02:34:01.801Z,100107.38
2022-11-24T02:36:30.076Z,100106.09
2022-11-24T02:38:58.276Z,100101.47
2022-11-24T02:41:29.234Z,100076.34
2022-11-24T02:44:00.995Z,100106.53
2022-11-24T02:46:29.512Z,100092.28
2022-11-24T02:48:58.111Z,100095.25
2022-11-24T02:51:26.374Z,100098.38
2022-11-24T02:53:54.612Z,100086.84
2022-11-24T02:56:22.774Z,100096.75
2022-11-24T02:58:52.431Z,100110.00
2022-11-24T03:01:20.741Z,100108.75
2022-11-24T03:03:48.895Z,100112.13
2022-11-24T03:06:17.164Z,100113.19
2022-11-24T03:08:45.381Z,100119.69
2022-11-24T03:11:15.377Z,100124.28
2022-11-24T03:13:43.628Z,100118.63
2022-11-24T03:16:13.249Z,100118.78
2022-11-24T03:18:41.449Z,100120.72
2022-11-24T03:21:09.915Z,100123.41
2022-11-24T03:23:38.121Z,100122.31
2022-11-24T03:26:10.197Z,100125.53
2022-11-24T03:28:38.516Z,100117.19
2022-11-24T03:31:07.336Z,100133.56
2022-11-24T03:33:37.417Z,100120.13
2022-11-24T03:36:06.399Z,100117.19
2022-11-24T03:38:34.620Z,100123.28
2022-11-24T03:41:02.994Z,100135.66
2022-11-24T03:43:31.233Z,100140.25
2022-11-24T03:45:59.424Z,100149.06
2022-11-24T03:48:27.701Z,100142.16
2022-11-24T03:50:58.565Z,100141.47
2022-11-24T03:53:28.656Z,100142.38
2022-11-24T03:55:57.265Z,100144.03
2022-11-24T03:58:25.887Z,100147.00
2022-11-24T04:00:55.229Z,100149.06
2022-11-24T04:03:23.599Z,100143.63
2022-11-24T04:05:51.850Z,100144.88
2022-11-24T04:08:21.764Z,100144.03
2022-11-24T04:10:51.773Z,100146.53
2022-11-24T04:13:20.824Z,100137.75
2022-11-24T04:15:49.125Z,100149.91
2022-11-24T04:18:17.275Z,100146.16
2022-11-24T04:20:45.850Z,100147.81
2022-11-24T04:23:14.133Z,100141.16
2022-11-24T04:25:43.969Z,100144.28
2022-11-24T04:28:12.363Z,100142.19
2022-11-24T04:30:45.068Z,100160.69
2022-11-24T04:33:13.774Z,100156.25
2022-11-24T04:35:41.988Z,100161.53
2022-11-24T04:38:10.407Z,100167.19
2022-11-24T04:40:38.868Z,100170.13
2022-11-24T04:43:08.519Z,100163.81
2022-11-24T04:45:36.831Z,100173.91
2022-11-24T04:48:05.111Z,100179.78
2022-11-24T04:50:33.322Z,100183.53
2022-11-24T04:53:01.615Z,100183.97
2022-11-24T04:55:29.842Z,100182.09
2022-11-24T04:57:58.275Z,100187.56
2022-11-24T05:00:28.103Z,100177.69
2022-11-24T05:02:56.876Z,100191.75
2022-11-24T05:05:24.998Z,100187.16
2022-11-24T05:07:53.227Z,100199.91
2022-11-24T05:10:36.445Z,100203.69
2022-11-24T05:13:06.088Z,100196.56
2022-11-24T05:15:35.686Z,100194.22
2022-11-24T05:18:06.981Z,100202.03
2022-11-24T05:20:35.589Z,100221.34
2022-11-24T05:23:04.601Z,100225.56
2022-11-24T05:25:33.203Z,100217.16
2022-11-24T05:28:02.524Z,100218.41
2022-11-24T05:30:31.165Z,100214.81
2022-11-24T05:33:01.152Z,100228.66
2022-11-24T05:35:29.338Z,100241.47
2022-11-24T05:37:59.447Z,100242.75
2022-11-24T05:40:27.822Z,100250.50
2022-11-24T05:42:56.022Z,100257.22
2022-11-24T05:45:24.384Z,100261.66
2022-11-24T05:47:53.424Z,100262.88
2022-11-24T05:50:23.997Z,100264.16
2022-11-24T05:52:52.280Z,100269.38
2022-11-24T05:55:20.937Z,100280.13
2022-11-24T05:57:49.167Z,100285.56
2022-11-24T06:00:20.241Z,100283.47
2022-11-24T06:02:49.384Z,100285.97
2022-11-24T06:05:18.034Z,100279.50
2022-11-24T06:07:47.738Z,100291.88
2022-11-24T06:10:16.572Z,100296.06
2022-11-24T06:12:45.139Z,100292.28
2022-11-24T06:15:13.873Z,100298.56
2022-11-24T06:17:42.357Z,100299.00
2022-11-24T06:20:12.011Z,100299.22
2022-11-24T06:22:40.647Z,100305.47
2022-11-24T06:25:11.178Z,100291.03
2022-11-24T06:27:39.581Z,100310.75
2022-11-24T06:30:08.578Z,100307.59
2022-11-24T06:32:37.142Z,100314.09
2022-11-24T06:35:06.582Z,100321.69
2022-11-24T06:37:37.709Z,100327.56
2022-11-24T06:40:08.242Z,100333.00
2022-11-24T06:42:37.939Z,100335.94
2022-11-24T06:45:09.299Z,100327.13
2022-11-24T06:47:37.831Z,100322.09
2022-11-24T06:50:07.040Z,100326.72
2022-11-24T06:52:35.197Z,100328.38
2022-11-24T06:55:03.607Z,100324.22
2022-11-24T06:57:32.612Z,100336.34
2022-11-24T07:00:02.204Z,100336.13
2022-11-24T07:02:32.729Z,100337.22
2022-11-24T07:05:01.214Z,100340.78
2022-11-24T07:07:29.459Z,100345.59
2022-11-24T07:09:58.086Z,100345.19
2022-11-24T07:12:26.291Z,100348.53
2022-11-24T07:14:54.669Z,100345.81
2022-11-24T07:17:24.391Z,100347.28
2022-11-24T07:19:52.847Z,100352.88
2022-11-24T07:22:21.077Z,100342.63
2022-11-24T07:24:49.378Z,100343.69
2022-11-24T07:27:17.750Z,100338.88
2022-11-24T07:29:45.881Z,100346.22
2022-11-24T07:32:14.293Z,100344.75
2022-11-24T07:34:44.033Z,100340.16
2022-11-24T07:37:12.447Z,100340.13
2022-11-24T07:39:40.723Z,100350.22
2022-11-24T07:42:10.643Z,100341.84
2022-11-24T07:44:39.019Z,100349.19
2022-11-24T07:47:13.350Z,100346.25
2022-11-24T07:49:41.981Z,100350.44
2022-11-24T07:52:11.611Z,100351.50
2022-11-24T07:54:40.140Z,100360.50
2022-11-24T07:57:08.341Z,100352.72
2022-11-24T07:59:36.782Z,100357.81
2022-11-24T08:02:05.279Z,100354.84
2022-11-24T08:04:34.029Z,100363.22
2022-11-24T08:07:03.660Z,100358.22
2022-11-24T08:09:33.585Z,100354.22
2022-11-24T08:12:01.815Z,100356.13
2022-11-24T08:14:30.433Z,100360.72
2022-11-24T08:16:59.349Z,100365.13
2022-11-24T08:19:27.595Z,100367.03
2022-11-24T08:21:56.072Z,100368.94
2022-11-24T08:24:24.559Z,100376.69
2022-11-24T08:26:54.074Z,100378.75
2022-11-24T08:29:22.325Z,100380.44
2022-11-24T08:31:50.622Z,100372.06
2022-11-24T08:34:18.810Z,100372.06
2022-11-24T08:36:47.019Z,100384.88
2022-11-24T08:39:15.312Z,100386.34
2022-11-24T08:41:44.070Z,100390.56
2022-11-24T08:44:16.115Z,100391.38
2022-11-24T08:46:44.547Z,100396.84
2022-11-24T08:49:14.572Z,100408.63
2022-11-24T08:51:43.588Z,100406.91
2022-11-24T08:54:15.452Z,100414.50
2022-11-24T08:56:43.725Z,100409.03
2022-11-24T08:59:15.052Z,100419.34
2022-11-24T09:01:43.443Z,100414.50
2022-11-24T09:04:11.742Z,100427.50
2022-11-24T09:06:39.933Z,100438.41
2022-11-24T09:09:08.247Z,100437.16
2022-11-24T09:11:36.654Z,100431.72
2022-11-24T09:14:05.779Z,100432.97
2022-11-24T09:16:35.525Z,100443.09
2022-11-24T09:19:05.658Z,100443.28
2022-11-24T09:21:37.894Z,100441.00
2022-11-24T09:24:07.430Z,100438.03
2022-11-24T09:26:39.001Z,100437.19
2022-11-24T09:29:09.171Z,100432.16
2022-11-24T09:31:39.385Z,100431.75
2022-11-24T09:34:09.049Z,100430.66
2022-11-24T09:36:37.293Z,100438.44
2022-11-24T09:39:05.680Z,100434.03
2022-11-24T09:41:46.002Z,100435.91
2022-11-24T09:44:36.704Z,100441.00
2022-11-24T09:47:11.730Z,100436.34
2022-11-24T09:49:50.927Z,100439.28
2022-11-24T09:52:23.354Z,100434.63
2022-11-24T09:54:54.660Z,100451.28
2022-11-24T09:57:23.541Z,100438.00
2022-11-24T09:59:51.766Z,100442.59
2022-11-24T10:02:21.355Z,100447.66
2022-11-24T10:04:50.794Z,100440.97
2022-11-24T10:07:23.932Z,100444.78
2022-11-24T10:09:59.756Z,100452.75
2022-11-24T10:12:47.534Z,100447.50
2022-11-24T10:15:25.849Z,100447.72
2022-11-24T10:18:16.224Z,100451.25
2022-11-24T10:20:54.032Z,100459.78
2022-11-24T10:23:33.551Z,100456.19
2022-11-24T10:26:07.331Z,100457.28
2022-11-24T10:28:39.608Z,100470.75
2022-11-24T10:31:20.089Z,100461.91
2022-11-24T10:33:49.938Z,100456.91
2022-11-24T10:36:22.284Z,100461.91
2022-11-24T10:38:54.947Z,100450.94
2022-11-24T10:41:26.657Z,100456.34
2022-11-24T10:43:55.132Z,100463.31
2022-11-24T10:46:25.875Z,100472.38
2022-11-24T10:48:59.996Z,100463.63
2022-11-24T10:51:41.452Z,100462.94
2022-11-24T10:54:18.497Z,100464.84
2022-11-24T10:56:48.072Z,100462.56
2022-11-24T10:59:35.041Z,100461.44
2022-11-24T11:02:03.902Z,100469.78
2022-11-24T11:04:35.441Z,100471.91
2022-11-24T11:07:19.509Z,100466.03
2022-11-24T11:09:48.751Z,100473.19
2022-11-24T11:15:27.049Z,100475.28
2022-11-24T11:17:58.937Z,100468.34
2022-11-24T11:20:31.773Z,100475.50
2022-11-24T11:23:02.274Z,100482.81
2022-11-24T11:25:33.760Z,100481.91
2022-11-24T11:28:19.447Z,100487.00
2022-11-24T11:31:17.871Z,100495.31
2022-11-24T11:34:07.212Z,100488.22
2022-11-24T11:36:42.214Z,100498.47
2022-11-24T11:39:21.296Z,100489.59
2022-11-24T11:41:51.918Z,100486.63
2022-11-24T11:44:29.974Z,100493.66
2022-11-24T11:47:00.592Z,100484.81
2022-11-24T11:49:29.192Z,100501.56
2022-11-24T11:52:09.977Z,100494.88
2022-11-24T11:54:53.588Z,100504.03
2022-11-24T11:57:23.112Z,100504.84
2022-11-24T12:00:09.795Z,100498.16
2022-11-24T12:03:20.378Z,100502.41
2022-11-24T12:05:55.111Z,100509.44
2022-11-24T12:08:55.915Z,100517.53
2022-11-24T12:11:25.816Z,100514.16
2022-11-24T12:14:03.667Z,100521.06
2022-11-24T12:16:38.788Z,100530.09
2022-11-24T12:19:21.203Z,100524.69
2022-11-24T12:21:56.869Z,100527.22
2022-11-24T12:24:38.614Z,100528.38
2022-11-24T12:27:12.083Z,100527.13
2022-11-24T12:29:46.825Z,100518.72
2022-11-24T12:32:25.705Z,100520.03
2022-11-24T12:34:57.381Z,100515.69
2022-11-24T12:37:47.910Z,100515.84
2022-11-24T12:40:26.430Z,100521.28
2022-11-24T12:43:02.728Z,100519.53
2022-11-24T12:45:35.764Z,100522.41
2022-11-24T12:48:16.957Z,100522.81
2022-11-24T12:50:47.447Z,100514.84
2022-11-24T12:53:18.768Z,100519.09
2022-11-24T12:55:48.661Z,100512.44
2022-11-24T12:58:23.225Z,100510.63
2022-11-24T13:01:00.632Z,100521.63
2022-11-24T13:03:37.374Z,100526.22
2022-11-24T13:06:12.369Z,100542.97
2022-11-24T13:08:41.158Z,100551.53
2022-11-24T13:11:46.731Z,100545.97
2022-11-24T13:14:20.029Z,100549.81
2022-11-24T13:17:21.729Z,100551.38
2022-11-24T13:19:43.149Z,100562.91
2022-11-24T13:22:16.806Z,100573.16
2022-11-24T13:24:46.283Z,100563.50
2022-11-24T13:27:29.110Z,100566.81
2022-11-24T13:29:57.567Z,100574.34
2022-11-24T13:33:02.493Z,100574.25
2022-11-24T13:35:31.221Z,100580.59
2022-11-24T13:37:59.495Z,100584.34
2022-11-24T13:40:59.893Z,100571.25
2022-11-24T13:43:34.581Z,100591.47
2022-11-24T13:46:04.112Z,100610.38
2022-11-24T13:48:54.923Z,100618.47
2022-11-24T13:51:25.315Z,100612.78
2022-11-24T13:53:55.368Z,100610.59
2022-11-24T13:56:29.989Z,100610.44
2022-11-24T13:59:02.075Z,100607.13
2022-11-24T14:01:32.053Z,100604.59
2022-11-24T14:07:05.545Z,100611.59
2022-11-24T14:09:38.086Z,100608.50
2022-11-24T14:12:13.083Z,100617.03
2022-11-24T14:14:44.202Z,100630.38
2022-11-24T14:17:22.569Z,100641.66
2022-11-24T14:19:52.272Z,100636.41
2022-11-24T14:22:23.067Z,100635.38
2022-11-24T14:24:56.316Z,100632.50
2022-11-24T14:27:30.127Z,100641.56
2022-11-24T14:30:01.673Z,100639.91
2022-11-24T14:32:34.180Z,100647.44
2022-11-24T14:35:02.650Z,100639.13
2022-11-24T14:37:32.067Z,100647.50
2022-11-24T14:40:00.429Z,100646.41
2022-11-24T14:42:29.060Z,100638.63
2022-11-24T14:45:00.327Z,100659.94
2022-11-24T14:47:31.754Z,100653.91
2022-11-24T14:50:09.473Z,100656.13
2022-11-24T14:52:44.997Z,100652.25
2022-11-24T14:55:26.380Z,100651.63
2022-11-24T14:57:55.000Z,100657.44
2022-11-24T15:00:31.168Z,100666.31
2022-11-24T15:03:16.205Z,100669.75
2022-11-24T15:05:58.669Z,100673.50
2022-11-24T15:08:28.643Z,100680.25
2022-11-24T15:10:59.156Z,100666.38
2022-11-24T15:13:27.765Z,100676.75
2022-11-24T15:16:02.488Z,100671.81
2022-11-24T15:18:37.872Z,100677.25
2022-11-24T15:21:06.322Z,100676.91
2022-11-24T15:23:35.314Z,100681.50
2022-11-24T15:26:30.730Z,100682.97
2022-11-24T15:29:00.693Z,100687.81
2022-11-24T15:31:30.393Z,100679.72
2022-11-24T15:33:58.718Z,100687.66
2022-11-24T15:36:27.013Z,100693.16
2022-11-24T15:38:55.355Z,100679.22
2022-11-24T15:41:26.097Z,100695.22
2022-11-24T15:43:59.400Z,100697.75
2022-11-24T15:46:29.499Z,100696.56
2022-11-24T15:48:58.279Z,100689.31
2022-11-24T15:51:27.304Z,100687.00
2022-11-24T15:54:00.803Z,100696.72
2022-11-24T15:56:33.202Z,100691.91
2022-11-24T15:59:02.038Z,100696.44
2022-11-24T16:01:33.419Z,100696.72
2022-11-24T16:04:01.859Z,100687.00
2022-11-24T16:06:30.306Z,100702.59
2022-11-24T16:08:59.336Z,100699.94
2022-11-24T16:11:27.995Z,100698.91
2022-11-24T16:13:56.403Z,100703.66
2022-11-24T16:16:26.337Z,100710.09
2022-11-24T16:18:56.141Z,100712.53
2022-11-24T16:21:24.420Z,100708.91
2022-11-24T16:23:52.770Z,100711.06
2022-11-24T16:26:21.040Z,100708.97
2022-11-24T16:28:49.269Z,100706.56
2022-11-24T16:31:19.285Z,100700.06
2022-11-24T16:33:47.702Z,100707.66
2022-11-24T16:36:17.313Z,100715.66
2022-11-24T16:38:45.806Z,100709.81
2022-11-24T16:41:14.567Z,100711.91
2022-11-24T16:43:42.997Z,100717.00
2022-11-24T16:46:19.962Z,100720.44
2022-11-24T16:48:49.406Z,100726.16
2022-11-24T16:51:20.604Z,100726.00
2022-11-24T16:53:49.357Z,100734.00
2022-11-24T16:56:17.698Z,100737.56
2022-11-24T16:58:45.994Z,100733.13
2022-11-24T17:01:15.267Z,100736.03
2022-11-24T17:03:43.868Z,100727.41
2022-11-24T17:06:13.396Z,100729.56
2022-11-24T17:08:43.595Z,100739.31
2022-11-24T17:11:13.673Z,100733.69
2022-11-24T17:13:42.396Z,100731.50
2022-11-24T17:16:12.384Z,100706.03
2022-11-24T17:18:41.155Z,100729.38
2022-11-24T17:21:13.472Z,100739.13
2022-11-24T17:23:45.759Z,100723.16
2022-11-24T17:26:15.580Z,100733.84
2022-11-24T17:28:44.364Z,100730.47
2022-11-24T17:31:18.400Z,100735.75
2022-11-24T17:33:47.016Z,100732.69
2022-11-24T17:36:15.335Z,100740.19
2022-11-24T17:38:45.048Z,100742.03
2022-11-24T17:41:13.828Z,100742.91
2022-11-24T17:43:42.289Z,100745.03
2022-11-24T17:46:11.982Z,100748.03
2022-11-24T17:48:40.326Z,100752.47
2022-11-24T17:51:13.030Z,100747.31
2022-11-24T17:53:42.807Z,100751.69
2022-11-24T17:56:15.141Z,100749.38
2022-11-24T17:58:44.047Z,100752.56
2022-11-24T18:01:12.986Z,100757.53
2022-11-24T18:03:41.787Z,100762.69
2022-11-24T18:06:12.103Z,100758.00
2022-11-24T18:08:42.019Z,100760.66
2022-11-24T18:11:11.661Z,100759.06
2022-11-24T18:13:56.473Z,100753.78
2022-11-24T18:16:30.442Z,100755.47
2022-11-24T18:19:08.478Z,100766.00
2022-11-24T18:21:37.808Z,100775.97
2022-11-24T18:24:06.520Z,100772.19
2022-11-24T18:26:34.883Z,100771.72
2022-11-24T18:29:05.120Z,100773.03
2022-11-24T18:31:35.937Z,100778.88
2022-11-24T18:34:05.468Z,100781.88
2022-11-24T18:36:34.995Z,100774.16
2022-11-24T18:39:04.131Z,100785.72
2022-11-24T18:41:32.688Z,100783.47
2022-11-24T18:44:02.535Z,100781.03
2022-11-24T18:46:32.444Z,100773.44
2022-11-24T18:49:00.900Z,100776.88
2022-11-24T18:51:29.222Z,100773.50
2022-11-24T18:53:58.414Z,100774.16
2022-11-24T18:56:27.426Z,100768.03
2022-11-24T18:58:57.147Z,100772.84
2022-11-24T19:01:27.183Z,100777.44
2022-11-24T19:03:58.610Z,100777.34
2022-11-24T19:06:32.753Z,100778.03
2022-11-24T19:09:02.644Z,100779.09
2022-11-24T19:11:34.008Z,100784.94
2022-11-24T19:14:03.121Z,100789.66
2022-11-24T19:16:32.079Z,100786.47
2022-11-24T19:19:03.206Z,100788.53
2022-11-24T19:21:33.051Z,100791.00
2022-11-24T19:24:05.442Z,100794.81
2022-11-24T19:26:35.256Z,100791.81
2022-11-24T19:29:03.920Z,100798.97
2022-11-24T19:31:33.718Z,100803.38
2022-11-24T19:34:05.568Z,100805.66
2022-11-24T19:36:34.201Z,100796.34
2022-11-24T19:39:05.191Z,100805.81
2022-11-24T19:41:34.277Z,100809.00
2022-11-24T19:44:02.746Z,100802.53
2022-11-24T19:46:31.157Z,100805.81
2022-11-24T19:49:02.728Z,100804.69
2022-11-24T19:51:32.534Z,100805.66
2022-11-24T19:54:01.265Z,100794.38
2022-11-24T19:56:31.408Z,100800.19
2022-11-24T19:59:00.348Z,100800.84
2022-11-24T20:01:30.105Z,100801.47
2022-11-24T20:04:00.046Z,100811.28
2022-11-24T20:06:30.870Z,100805.25
2022-11-24T20:09:00.658Z,100800.66
2022-11-24T20:11:29.971Z,100804.69
2022-11-24T20:13:58.817Z,100808.91
2022-11-24T20:16:29.934Z,100813.16
2022-11-24T20:18:59.905Z,100805.81
2022-11-24T20:21:31.390Z,100809.75
2022-11-24T20:24:01.299Z,100804.59
2022-11-24T20:26:31.390Z,100805.38
2022-11-24T20:29:00.473Z,100808.28
2022-11-24T20:31:31.265Z,100812.03
2022-11-24T20:34:00.849Z,100813.72
2022-11-24T20:36:32.222Z,100813.72
2022-11-24T20:39:01.453Z,100816.91
2022-11-24T20:41:31.844Z,100828.84
2022-11-24T20:44:01.470Z,100825.84
2022-11-24T20:46:32.122Z,100824.81
2022-11-24T20:49:01.005Z,100820.22
2022-11-24T20:51:32.573Z,100827.06
2022-11-24T20:54:02.694Z,100827.53
2022-11-24T20:56:33.533Z,100833.84
2022-11-24T20:59:02.482Z,100834.88
2022-11-24T21:01:35.121Z,100838.72
2022-11-24T21:04:04.347Z,100841.34
2022-11-24T21:06:34.041Z,100840.69
2022-11-24T21:09:04.210Z,100840.97
2022-11-24T21:11:33.332Z,100845.09
2022-11-24T21:14:02.004Z,100848.94
2022-11-24T21:16:32.099Z,100845.84
2022-11-24T21:19:05.157Z,100856.72
2022-11-24T21:21:35.825Z,100856.00
2022-11-24T21:24:05.313Z,100859.75
2022-11-24T21:26:36.088Z,100858.03
2022-11-24T21:29:04.788Z,100851.66
2022-11-24T21:31:36.347Z,100853.44
2022-11-24T21:34:04.708Z,100862.38
2022-11-24T21:36:35.241Z,100869.63
2022-11-24T21:39:04.485Z,100860.31
2022-11-24T21:41:34.501Z,100864.25
2022-11-24T21:44:04.862Z,100864.44
2022-11-24T21:46:40.405Z,100868.28
2022-11-24T21:49:10.803Z,100866.03
2022-11-24T21:51:40.389Z,100876.66
2022-11-24T21:54:09.016Z,100882.13
2022-11-24T21:56:37.294Z,100876.75
2022-11-24T21:59:05.465Z,100880.13
2022-11-24T22:01:33.779Z,100883.03
2022-11-24T22:04:02.115Z,100888.00
2022-11-24T22:06:30.374Z,100885.66
2022-11-24T22:08:59.957Z,100889.31
2022-11-24T22:11:28.264Z,100884.72
2022-11-24T22:13:56.711Z,100888.34
2022-11-24T22:16:25.871Z,100889.41
2022-11-24T22:18:54.249Z,100894.84
2022-11-24T22:21:24.331Z,100876.47
2022-11-24T22:23:53.608Z,100887.38
2022-11-24T22:26:24.428Z,100885.66
2022-11-24T22:28:53.045Z,100889.03
2022-11-24T22:31:22.637Z,100894.41
2022-11-24T22:33:51.686Z,100889.41
2022-11-24T22:36:21.447Z,100893.94
2022-11-24T22:38:54.680Z,100891.47
2022-11-24T22:41:24.755Z,100888.28
2022-11-24T22:43:53.144Z,100892.59
2022-11-24T22:46:22.915Z,100896.75
2022-11-24T22:48:52.981Z,100893.00
2022-11-24T22:51:23.208Z,100898.91
2022-11-24T22:53:53.123Z,100898.91
2022-11-24T22:56:21.643Z,100899.84
2022-11-24T22:58:51.704Z,100903.31
2022-11-24T23:01:21.559Z,100901.63
2022-11-24T23:03:50.473Z,100901.91
2022-11-24T23:06:20.963Z,100906.13
2022-11-24T23:08:49.292Z,100909.31
2022-11-24T23:11:19.276Z,100916.00
2022-11-24T23:13:49.731Z,100914.94
2022-11-24T23:16:19.900Z,100916.56
2022-11-24T23:18:53.747Z,100916.19
2022-11-24T23:21:24.528Z,100907.41
2022-11-24T23:23:55.250Z,100909.69
2022-11-24T23:26:27.341Z,100915.72
2022-11-24T23:28:55.623Z,100917.03
2022-11-24T23:31:28.975Z,100918.13
2022-11-24T23:33:58.388Z,100925.91
2022-11-24T23:36:26.675Z,100928.44
2022-11-24T23:38:55.234Z,100935.72
2022-11-24T23:41:25.413Z,100931.16
2022-11-24T23:43:53.851Z,100917.19
2022-11-24T23:46:25.396Z,100933.41
2022-11-24T23:48:54.949Z,100919.78
2022-11-24T23:51:25.078Z,100933.25
2022-11-24T23:53:53.824Z,100939.13
2022-11-24T23:56:23.740Z,100938.13
2022-11-24T23:58:52.152Z,100933.53
